createdAt,value
2019-06-08T00:02:27.261Z,99.90
2019-06-08T00:04:58.117Z,99.90
2019-06-08T00:07:28.779Z,99.90
2019-06-08T00:09:59.566Z,99.90
2019-06-08T00:12:31.458Z,99.90
2019-06-08T00:15:02.475Z,99.90
2019-06-08T00:17:38.467Z,99.90
2019-06-08T00:20:09.205Z,99.90
2019-06-08T00:22:41.106Z,99.90
2019-06-08T00:25:13.696Z,99.90
2019-06-08T00:27:44.656Z,99.90
2019-06-08T00:30:15.830Z,99.90
2019-06-08T00:32:47.756Z,99.90
2019-06-08T00:35:18.705Z,99.90
2019-06-08T00:37:49.940Z,99.90
2019-06-08T00:40:21.113Z,99.90
2019-06-08T00:42:53.010Z,99.90
2019-06-08T00:45:23.781Z,99.90
2019-06-08T00:47:54.450Z,99.90
2019-06-08T00:50:25.407Z,99.90
2019-06-08T00:52:56.252Z,99.90
2019-06-08T00:55:27.222Z,99.90
2019-06-08T00:57:58.159Z,99.90
2019-06-08T01:00:30.609Z,99.90
2019-06-08T01:03:01.678Z,99.90
2019-06-08T01:05:32.511Z,99.90
2019-06-08T01:08:03.438Z,99.90
2019-06-08T01:10:34.594Z,99.90
2019-06-08T01:13:05.607Z,99.90
2019-06-08T01:15:37.900Z,99.90
2019-06-08T01:18:08.764Z,99.90
2019-06-08T01:20:39.602Z,99.90
2019-06-08T01:23:10.407Z,99.90
2019-06-08T01:25:42.419Z,99.90
2019-06-08T01:28:13.332Z,99.90
2019-06-08T01:30:44.021Z,99.90
2019-06-08T01:33:14.952Z,99.90
2019-06-08T01:35:46.735Z,99.90
2019-06-08T01:38:17.575Z,99.90
2019-06-08T01:40:48.464Z,99.90
2019-06-08T01:43:19.447Z,99.90
2019-06-08T01:45:50.250Z,99.90
2019-06-08T01:48:22.283Z,99.90
2019-06-08T01:50:53.665Z,99.90
2019-06-08T01:53:24.737Z,99.90
2019-06-08T01:55:55.636Z,99.90
2019-06-08T01:58:27.433Z,99.90
2019-06-08T02:00:58.226Z,99.90
2019-06-08T02:03:30.060Z,99.90
2019-06-08T02:06:01.063Z,99.90
2019-06-08T02:08:32.650Z,99.90
2019-06-08T02:11:03.554Z,99.90
2019-06-08T02:13:35.253Z,99.90
2019-06-08T02:16:06.172Z,99.90
2019-06-08T02:18:48.999Z,99.90
2019-06-08T02:21:09.458Z,99.90
2019-06-08T02:23:40.398Z,99.90
2019-06-08T02:26:11.272Z,99.90
2019-06-08T02:28:41.979Z,99.90
2019-06-08T02:31:12.691Z,99.90
2019-06-08T02:33:43.512Z,99.90
2019-06-08T02:36:14.367Z,99.90
2019-06-08T02:38:47.462Z,99.90
2019-06-08T02:41:18.293Z,99.90
2019-06-08T02:43:49.097Z,99.90
2019-06-08T02:46:19.982Z,99.90
2019-06-08T02:49:03.669Z,99.90
2019-06-08T02:51:23.562Z,99.90
2019-06-08T02:53:54.503Z,99.90
2019-06-08T02:56:29.843Z,99.90
2019-06-08T02:59:02.160Z,99.90
2019-06-08T03:01:35.999Z,99.90
2019-06-08T03:04:07.546Z,99.90
2019-06-08T03:06:41.641Z,99.90
2019-06-08T03:09:12.436Z,99.90
2019-06-08T03:11:44.688Z,99.90
2019-06-08T03:14:17.999Z,99.90
2019-06-08T03:16:50.134Z,99.90
2019-06-08T03:19:22.936Z,99.90
2019-06-08T03:21:53.376Z,99.90
2019-06-08T03:24:24.310Z,99.90
2019-06-08T03:26:56.395Z,99.90
2019-06-08T03:29:27.127Z,99.90
2019-06-08T03:31:57.958Z,99.90
2019-06-08T03:34:29.812Z,99.90
2019-06-08T03:37:02.352Z,99.90
2019-06-08T03:39:34.982Z,99.90
2019-06-08T03:42:05.746Z,99.90
2019-06-08T03:44:38.312Z,99.90
2019-06-08T03:47:10.455Z,99.90
2019-06-08T03:49:52.226Z,99.90
2019-06-08T03:52:13.711Z,99.90
2019-06-08T03:54:46.717Z,99.90
2019-06-08T03:57:17.598Z,99.90
2019-06-08T03:59:48.471Z,99.90
2019-06-08T04:02:20.464Z,99.90
2019-06-08T04:04:51.343Z,99.90
2019-06-08T04:07:22.316Z,99.90
2019-06-08T04:09:53.178Z,99.90
2019-06-08T04:12:24.115Z,99.90
2019-06-08T04:14:54.914Z,99.90
2019-06-08T04:17:25.765Z,99.90
2019-06-08T04:20:10.140Z,99.90
2019-06-08T04:22:29.963Z,99.90
2019-06-08T04:25:00.856Z,99.90
2019-06-08T04:27:31.692Z,99.90
2019-06-08T04:30:02.420Z,99.90
2019-06-08T04:32:33.461Z,99.90
2019-06-08T04:35:05.471Z,99.90
2019-06-08T04:37:38.045Z,99.90
2019-06-08T04:40:09.056Z,99.90
2019-06-08T04:42:41.592Z,99.90
2019-06-08T04:45:12.673Z,99.90
2019-06-08T04:47:45.351Z,99.90
2019-06-08T04:50:22.863Z,99.90
2019-06-08T04:52:49.899Z,99.90
2019-06-08T04:55:21.155Z,99.90
2019-06-08T04:57:53.055Z,99.90
2019-06-08T05:00:23.916Z,99.90
2019-06-08T05:02:54.889Z,99.90
2019-06-08T05:05:25.755Z,99.90
2019-06-08T05:07:56.628Z,99.90
2019-06-08T05:10:27.463Z,99.90
2019-06-08T05:12:58.366Z,99.90
2019-06-08T05:15:29.544Z,99.90
2019-06-08T05:18:00.702Z,99.90
2019-06-08T05:20:39.030Z,99.90
2019-06-08T05:23:05.329Z,99.90
2019-06-08T05:25:36.107Z,99.90
2019-06-08T05:28:06.864Z,99.90
2019-06-08T05:30:37.551Z,99.90
2019-06-08T05:33:08.295Z,99.90
2019-06-08T05:35:39.476Z,99.90
2019-06-08T05:38:10.546Z,99.90
2019-06-08T05:40:41.545Z,99.90
2019-06-08T05:43:12.480Z,99.90
2019-06-08T05:45:43.975Z,99.90
2019-06-08T05:48:14.918Z,99.90
2019-06-08T05:51:00.227Z,99.90
2019-06-08T05:53:18.221Z,99.90
2019-06-08T05:55:50.150Z,99.90
2019-06-08T05:58:22.355Z,99.90
2019-06-08T06:00:53.208Z,99.90
2019-06-08T06:03:24.125Z,99.90
2019-06-08T06:05:54.957Z,99.90
2019-06-08T06:08:26.906Z,99.90
2019-06-08T06:10:57.607Z,99.90
2019-06-08T06:13:28.388Z,99.90
2019-06-08T06:15:59.326Z,99.90
2019-06-08T06:18:30.133Z,99.90
2019-06-08T06:21:10.564Z,99.90
2019-06-08T06:23:33.472Z,99.90
2019-06-08T06:26:04.193Z,99.90
2019-06-08T06:28:35.054Z,99.90
2019-06-08T06:31:05.944Z,99.90
2019-06-08T06:33:36.807Z,99.90
2019-06-08T06:36:07.669Z,99.90
2019-06-08T06:38:39.957Z,99.90
2019-06-08T06:41:15.707Z,99.90
2019-06-08T06:43:50.427Z,99.90
2019-06-08T06:46:24.921Z,99.90
2019-06-08T06:48:57.767Z,99.90
2019-06-08T06:51:28.614Z,99.90
2019-06-08T06:54:00.295Z,99.90
2019-06-08T06:56:31.368Z,99.90
2019-06-08T06:59:03.149Z,99.90
2019-06-08T07:01:33.999Z,99.90
2019-06-08T07:04:05.036Z,99.90
2019-06-08T07:06:37.335Z,99.90
2019-06-08T07:09:08.277Z,99.90
2019-06-08T07:11:38.987Z,99.90
2019-06-08T07:14:09.845Z,99.90
2019-06-08T07:16:40.749Z,99.90
2019-06-08T07:19:12.746Z,99.90
2019-06-08T07:21:43.590Z,99.90
2019-06-08T07:24:14.377Z,99.90
2019-06-08T07:26:46.272Z,99.90
2019-06-08T07:29:18.445Z,99.90
2019-06-08T07:31:50.342Z,99.90
2019-06-08T07:34:21.650Z,99.90
2019-06-08T07:36:53.411Z,99.90
2019-06-08T07:39:26.155Z,99.90
2019-06-08T07:41:57.024Z,99.90
2019-06-08T07:44:27.962Z,99.90
2019-06-08T07:47:00.139Z,99.90
2019-06-08T07:49:31.239Z,99.90
2019-06-08T07:52:09.439Z,99.90
2019-06-08T07:54:34.489Z,99.90
2019-06-08T07:57:05.352Z,99.90
2019-06-08T07:59:36.312Z,99.90
2019-06-08T08:02:07.191Z,99.90
2019-06-08T08:04:38.013Z,99.90
2019-06-08T08:07:08.902Z,99.90
2019-06-08T08:09:39.865Z,99.90
2019-06-08T08:12:12.240Z,99.90
2019-06-08T08:14:43.389Z,99.90
2019-06-08T08:17:15.257Z,99.90
2019-06-08T08:19:46.112Z,99.90
2019-06-08T08:22:23.084Z,99.90
2019-06-08T08:24:53.809Z,99.90
2019-06-08T08:27:23.276Z,99.90
2019-06-08T08:29:55.344Z,99.90
2019-06-08T08:32:28.316Z,99.90
2019-06-08T08:35:01.062Z,99.90
2019-06-08T08:37:31.249Z,99.90
2019-06-08T08:40:02.201Z,99.90
2019-06-08T08:42:33.197Z,99.90
2019-06-08T08:45:08.526Z,99.90
2019-06-08T08:47:38.845Z,99.90
2019-06-08T08:50:10.479Z,99.90
2019-06-08T08:52:41.515Z,99.90
2019-06-08T08:55:12.454Z,99.90
2019-06-08T08:57:44.742Z,99.90
2019-06-08T09:00:17.949Z,99.90
2019-06-08T09:02:50.232Z,99.90
2019-06-08T09:05:20.919Z,99.90
2019-06-08T09:07:52.643Z,99.90
2019-06-08T09:10:24.638Z,99.90
2019-06-08T09:12:58.882Z,99.90
2019-06-08T09:15:31.414Z,99.90
2019-06-08T09:18:03.353Z,99.90
2019-06-08T09:20:33.571Z,99.90
2019-06-08T09:23:14.655Z,99.90
2019-06-08T09:25:37.487Z,99.90
2019-06-08T09:28:09.913Z,99.90
2019-06-08T09:30:40.829Z,99.90
2019-06-08T09:33:11.689Z,99.90
2019-06-08T09:35:42.519Z,99.90
2019-06-08T09:38:14.432Z,99.90
2019-06-08T09:40:45.320Z,99.90
2019-06-08T09:43:18.717Z,99.90
2019-06-08T09:45:48.652Z,99.90
2019-06-08T09:48:19.515Z,99.90
2019-06-08T09:50:50.295Z,99.90
2019-06-08T09:53:28.458Z,99.90
2019-06-08T09:55:57.586Z,99.90
2019-06-08T09:58:29.103Z,99.90
2019-06-08T10:01:03.674Z,99.90
2019-06-08T10:03:32.972Z,99.90
2019-06-08T10:06:08.078Z,99.90
2019-06-08T10:08:38.551Z,99.90
2019-06-08T10:11:09.595Z,99.90
2019-06-08T10:13:43.274Z,99.90
2019-06-08T10:16:13.372Z,99.90
2019-06-08T10:18:44.335Z,99.90
2019-06-08T10:21:15.182Z,99.90
2019-06-08T10:23:48.259Z,99.90
2019-06-08T10:26:18.370Z,99.90
2019-06-08T10:28:51.324Z,99.90
2019-06-08T10:31:35.689Z,99.90
2019-06-08T10:33:55.585Z,99.90
2019-06-08T10:36:28.352Z,99.90
2019-06-08T10:39:03.902Z,99.90
2019-06-08T10:41:34.630Z,99.90
2019-06-08T10:44:08.502Z,99.90
2019-06-08T10:46:40.322Z,99.90
2019-06-08T10:49:14.243Z,99.90
2019-06-08T10:51:42.937Z,99.90
2019-06-08T10:54:13.903Z,99.90
2019-06-08T10:56:44.789Z,95.50
2019-06-08T10:59:18.513Z,93.40
2019-06-08T11:01:49.635Z,90.90
2019-06-08T11:04:21.561Z,92.40
2019-06-08T11:06:53.474Z,93.00
2019-06-08T11:09:28.341Z,92.30
2019-06-08T11:11:59.525Z,90.80
2019-06-08T11:14:30.572Z,87.10
2019-06-08T11:17:02.612Z,86.70
2019-06-08T11:19:37.525Z,83.70
2019-06-08T11:22:13.880Z,84.60
2019-06-08T11:24:40.473Z,85.10
2019-06-08T11:27:13.044Z,83.40
2019-06-08T11:29:44.077Z,82.40
2019-06-08T11:32:14.921Z,77.70
2019-06-08T11:34:45.763Z,77.80
2019-06-08T11:37:20.753Z,75.50
2019-06-08T11:39:49.267Z,75.70
2019-06-08T11:42:20.287Z,73.20
2019-06-08T11:44:51.546Z,73.60
2019-06-08T11:47:22.700Z,75.20
2019-06-08T11:49:53.562Z,77.40
2019-06-08T11:52:25.885Z,76.80
2019-06-08T11:55:00.329Z,77.70
2019-06-08T11:57:32.692Z,76.70
2019-06-08T12:00:16.731Z,72.00
2019-06-08T12:02:38.329Z,71.30
2019-06-08T12:05:12.425Z,70.20
2019-06-08T12:07:43.208Z,70.90
2019-06-08T12:10:14.350Z,70.70
2019-06-08T12:12:47.032Z,69.30
2019-06-08T12:15:21.065Z,68.20
2019-06-08T12:17:50.439Z,68.30
2019-06-08T12:20:24.331Z,72.00
2019-06-08T12:22:57.848Z,71.10
2019-06-08T12:25:28.657Z,67.00
2019-06-08T12:28:00.594Z,66.10
2019-06-08T12:30:31.483Z,63.40
2019-06-08T12:33:04.808Z,64.40
2019-06-08T12:35:35.966Z,63.20
2019-06-08T12:38:09.653Z,67.30
2019-06-08T12:40:41.114Z,66.10
2019-06-08T12:43:13.269Z,65.70
2019-06-08T12:45:44.688Z,65.00
2019-06-08T12:48:19.600Z,65.60
2019-06-08T12:50:48.120Z,64.00
2019-06-08T12:53:22.593Z,62.50
2019-06-08T12:55:51.513Z,62.50
2019-06-08T12:58:22.412Z,62.00
2019-06-08T13:00:53.286Z,65.60
2019-06-08T13:03:24.150Z,64.90
2019-06-08T13:05:54.944Z,67.60
2019-06-08T13:08:25.709Z,64.70
2019-06-08T13:10:57.476Z,62.10
2019-06-08T13:13:29.000Z,62.20
2019-06-08T13:15:59.734Z,60.10
2019-06-08T13:18:32.051Z,61.00
2019-06-08T13:21:18.765Z,60.90
2019-06-08T13:23:38.372Z,60.40
2019-06-08T13:26:08.996Z,57.90
2019-06-08T13:28:42.734Z,57.80
2019-06-08T13:31:14.975Z,57.30
2019-06-08T13:33:48.373Z,58.30
2019-06-08T13:36:22.053Z,59.80
2019-06-08T13:38:52.513Z,61.20
2019-06-08T13:41:26.252Z,60.30
2019-06-08T13:43:58.123Z,61.50
2019-06-08T13:46:29.116Z,65.20
2019-06-08T13:49:00.057Z,67.70
2019-06-08T13:51:30.867Z,65.30
2019-06-08T13:54:01.702Z,62.50
2019-06-08T13:56:32.682Z,59.60
2019-06-08T13:59:03.499Z,59.60
2019-06-08T14:01:34.563Z,58.60
2019-06-08T14:04:05.504Z,61.80
2019-06-08T14:06:37.291Z,61.10
2019-06-08T14:09:08.416Z,61.30
2019-06-08T14:11:39.338Z,63.70
2019-06-08T14:14:10.125Z,64.70
2019-06-08T14:16:42.317Z,66.10
2019-06-08T14:19:13.054Z,64.10
2019-06-08T14:21:43.952Z,64.80
2019-06-08T14:24:14.928Z,62.40
2019-06-08T14:26:48.650Z,65.00
2019-06-08T14:29:21.174Z,64.20
2019-06-08T14:31:51.942Z,63.20
2019-06-08T14:34:23.674Z,63.70
2019-06-08T14:36:55.353Z,61.80
2019-06-08T14:39:27.205Z,64.50
2019-06-08T14:41:58.738Z,65.10
2019-06-08T14:44:32.240Z,64.20
2019-06-08T14:47:03.917Z,60.40
2019-06-08T14:49:35.202Z,61.80
2019-06-08T14:52:10.640Z,63.40
2019-06-08T14:54:40.418Z,62.60
2019-06-08T14:57:11.150Z,64.50
2019-06-08T14:59:42.060Z,61.80
2019-06-08T15:02:14.359Z,60.90
2019-06-08T15:04:45.184Z,61.30
2019-06-08T15:07:20.111Z,62.10
2019-06-08T15:09:48.376Z,66.00
2019-06-08T15:12:19.426Z,64.20
2019-06-08T15:14:50.328Z,64.70
2019-06-08T15:17:21.850Z,66.90
2019-06-08T15:19:52.884Z,64.80
2019-06-08T15:22:26.800Z,64.80
2019-06-08T15:24:58.049Z,63.60
2019-06-08T15:27:31.824Z,63.70
2019-06-08T15:30:01.537Z,65.10
2019-06-08T15:32:35.390Z,65.60
2019-06-08T15:35:08.126Z,65.70
2019-06-08T15:37:40.904Z,66.90
2019-06-08T15:40:12.617Z,68.40
2019-06-08T15:42:43.522Z,68.10
2019-06-08T15:45:14.411Z,68.30
2019-06-08T15:47:45.206Z,67.30
2019-06-08T15:50:17.999Z,66.80
2019-06-08T15:52:48.787Z,67.70
2019-06-08T15:55:21.013Z,66.20
2019-06-08T15:57:52.199Z,67.50
2019-06-08T16:00:23.219Z,67.90
2019-06-08T16:02:54.458Z,66.00
2019-06-08T16:05:25.590Z,66.10
2019-06-08T16:07:56.463Z,65.00
2019-06-08T16:10:28.106Z,66.50
2019-06-08T16:12:59.028Z,66.50
2019-06-08T16:15:30.984Z,66.80
2019-06-08T16:18:02.105Z,65.10
2019-06-08T16:20:33.549Z,66.70
2019-06-08T16:23:04.660Z,66.10
2019-06-08T16:25:38.642Z,67.30
2019-06-08T16:28:08.017Z,67.20
2019-06-08T16:30:39.462Z,67.50
2019-06-08T16:33:11.889Z,67.80
2019-06-08T16:35:42.824Z,67.90
2019-06-08T16:38:13.724Z,68.10
2019-06-08T16:40:44.767Z,68.70
2019-06-08T16:43:17.789Z,68.90
2019-06-08T16:45:49.694Z,68.10
2019-06-08T16:48:20.866Z,69.30
2019-06-08T16:50:52.077Z,69.20
2019-06-08T16:53:23.041Z,68.70
2019-06-08T16:55:53.894Z,68.40
2019-06-08T16:58:24.711Z,67.40
2019-06-08T17:00:55.686Z,66.40
2019-06-08T17:03:28.756Z,66.60
2019-06-08T17:05:59.613Z,67.10
2019-06-08T17:08:34.701Z,66.30
2019-06-08T17:11:03.231Z,66.70
2019-06-08T17:13:34.136Z,67.20
2019-06-08T17:16:05.118Z,67.20
2019-06-08T17:18:36.679Z,68.20
2019-06-08T17:21:07.595Z,67.70
2019-06-08T17:23:40.566Z,70.10
2019-06-08T17:26:11.724Z,68.20
2019-06-08T17:28:42.633Z,68.10
2019-06-08T17:31:13.503Z,68.00
2019-06-08T17:33:45.766Z,69.30
2019-06-08T17:36:16.815Z,69.50
2019-06-08T17:38:47.655Z,70.10
2019-06-08T17:41:18.479Z,69.40
2019-06-08T17:43:50.414Z,70.00
2019-06-08T17:46:21.171Z,70.80
2019-06-08T17:48:52.113Z,70.50
2019-06-08T17:51:23.049Z,70.60
2019-06-08T17:53:53.993Z,71.20
2019-06-08T17:56:24.720Z,71.40
2019-06-08T17:58:56.070Z,71.40
2019-06-08T18:01:26.982Z,72.30
2019-06-08T18:03:58.043Z,72.70
2019-06-08T18:06:29.702Z,72.60
2019-06-08T18:09:00.410Z,72.60
2019-06-08T18:11:34.359Z,73.40
2019-06-08T18:14:07.338Z,73.90
2019-06-08T18:16:40.882Z,74.80
2019-06-08T18:19:28.325Z,75.60
2019-06-08T18:22:06.324Z,75.80
2019-06-08T18:24:34.419Z,76.30
2019-06-08T18:27:07.634Z,76.80
2019-06-08T18:29:39.675Z,77.40
2019-06-08T18:32:11.543Z,76.70
2019-06-08T18:34:43.344Z,78.20
2019-06-08T18:37:14.923Z,77.60
2019-06-08T18:39:45.958Z,78.40
2019-06-08T18:42:18.330Z,78.60
2019-06-08T18:44:49.198Z,79.00
2019-06-08T18:47:21.354Z,79.60
2019-06-08T18:49:52.203Z,80.00
2019-06-08T18:52:23.243Z,80.10
2019-06-08T18:54:54.117Z,80.40
2019-06-08T18:57:27.512Z,80.70
2019-06-08T18:59:58.493Z,80.90
2019-06-08T19:02:29.456Z,81.40
2019-06-08T19:05:01.357Z,82.40
2019-06-08T19:07:33.891Z,81.30
2019-06-08T19:10:07.584Z,81.10
2019-06-08T19:12:41.137Z,81.50
2019-06-08T19:15:11.484Z,82.10
2019-06-08T19:17:48.254Z,82.70
2019-06-08T19:20:17.006Z,83.40
2019-06-08T19:22:53.933Z,83.10
2019-06-08T19:25:20.390Z,83.80
2019-06-08T19:27:53.269Z,84.10
2019-06-08T19:30:24.968Z,85.40
2019-06-08T19:32:57.863Z,86.40
2019-06-08T19:35:28.789Z,88.20
2019-06-08T19:37:59.636Z,89.90
2019-06-08T19:40:30.522Z,90.00
2019-06-08T19:43:02.794Z,89.50
2019-06-08T19:45:33.535Z,89.40
2019-06-08T19:48:04.770Z,90.00
2019-06-08T19:50:35.680Z,89.50
2019-06-08T19:53:07.359Z,89.30
2019-06-08T19:55:39.390Z,90.00
2019-06-08T19:58:10.574Z,89.70
2019-06-08T20:00:42.341Z,89.70
2019-06-08T20:03:17.646Z,90.10
2019-06-08T20:05:50.642Z,90.40
2019-06-08T20:08:20.163Z,90.60
2019-06-08T20:10:50.967Z,91.80
2019-06-08T20:13:23.164Z,91.80
2019-06-08T20:15:58.340Z,92.50
2019-06-08T20:18:27.978Z,93.20
2019-06-08T20:20:59.048Z,93.80
2019-06-08T20:23:31.421Z,94.60
2019-06-08T20:26:02.363Z,95.40
2019-06-08T20:28:33.298Z,95.80
2019-06-08T20:31:07.266Z,96.70
2019-06-08T20:33:38.450Z,97.30
2019-06-08T20:36:09.389Z,97.90
2019-06-08T20:38:43.756Z,98.60
2019-06-08T20:41:12.972Z,98.60
2019-06-08T20:43:47.772Z,99.10
2019-06-08T20:46:20.338Z,99.70
2019-06-08T20:48:51.721Z,99.90
2019-06-08T20:51:22.866Z,99.90
2019-06-08T20:53:57.166Z,99.90
2019-06-08T20:56:28.045Z,99.90
2019-06-08T20:58:59.300Z,99.90
2019-06-08T21:01:30.180Z,99.90
2019-06-08T21:04:02.371Z,99.90
2019-06-08T21:06:33.344Z,99.90
2019-06-08T21:09:07.774Z,99.90
2019-06-08T21:11:39.110Z,99.90
2019-06-08T21:14:10.966Z,99.90
2019-06-08T21:16:41.825Z,99.90
2019-06-08T21:19:12.558Z,99.90
2019-06-08T21:21:45.625Z,99.90
2019-06-08T21:24:17.321Z,99.90
2019-06-08T21:26:52.354Z,99.90
2019-06-08T21:29:22.226Z,99.90
2019-06-08T21:31:55.325Z,99.90
2019-06-08T21:34:27.759Z,99.90
2019-06-08T21:37:00.704Z,99.90
2019-06-08T21:39:30.930Z,99.90
2019-06-08T21:42:03.224Z,99.90
2019-06-08T21:44:37.237Z,99.90
2019-06-08T21:47:08.185Z,99.90
2019-06-08T21:49:39.153Z,99.90
2019-06-08T21:52:10.145Z,99.90
2019-06-08T21:54:42.328Z,99.90
2019-06-08T21:57:13.248Z,99.90
2019-06-08T21:59:44.006Z,99.90
2019-06-08T22:02:17.087Z,99.90
2019-06-08T22:04:49.686Z,99.90
2019-06-08T22:07:21.887Z,99.90
2019-06-08T22:09:54.092Z,99.90
2019-06-08T22:12:25.139Z,99.90
2019-06-08T22:14:59.326Z,99.90
2019-06-08T22:17:29.505Z,99.90
2019-06-08T22:20:01.078Z,99.90
2019-06-08T22:22:31.907Z,99.90
2019-06-08T22:25:03.689Z,99.90
2019-06-08T22:27:37.947Z,99.90
2019-06-08T22:30:15.527Z,99.90
2019-06-08T22:32:42.098Z,99.90
2019-06-08T22:35:12.966Z,99.90
2019-06-08T22:37:43.735Z,99.90
2019-06-08T22:40:17.422Z,99.90
2019-06-08T22:42:48.138Z,99.90
2019-06-08T22:45:20.123Z,99.90
2019-06-08T22:47:52.910Z,99.90
2019-06-08T22:50:23.514Z,99.90
2019-06-08T22:52:55.208Z,99.90
2019-06-08T22:55:27.903Z,99.90
2019-06-08T22:58:01.408Z,99.90
2019-06-08T23:00:31.211Z,99.90
2019-06-08T23:03:03.795Z,99.90
2019-06-08T23:05:35.756Z,99.90
2019-06-08T23:08:09.365Z,99.90
2019-06-08T23:10:40.058Z,99.90
2019-06-08T23:13:11.032Z,99.90
2019-06-08T23:15:41.803Z,99.90
2019-06-08T23:18:12.704Z,99.90
2019-06-08T23:20:43.844Z,99.90
2019-06-08T23:23:14.677Z,99.90
2019-06-08T23:25:47.680Z,99.90
2019-06-08T23:28:18.302Z,99.90
2019-06-08T23:31:03.346Z,99.90
2019-06-08T23:33:21.712Z,99.90
2019-06-08T23:36:30.017Z,99.90
2019-06-08T23:38:27.886Z,99.90
2019-06-08T23:41:00.547Z,99.90
2019-06-08T23:43:31.608Z,99.90
2019-06-08T23:46:03.687Z,99.90
2019-06-08T23:48:37.284Z,99.90
2019-06-08T23:51:09.713Z,99.90
2019-06-08T23:53:39.668Z,99.90
2019-06-08T23:56:11.853Z,99.90
2019-06-08T23:58:43.036Z,99.90
